Ajo, Arizona
Current Conditions -  °F | °C
As of 3:56 AM on Sunday 21 Dec 2014 (Local Time) from KGXF Reporting Station
Clear Clear  
Wind Chill: 46°   Ceiling: Unl
Heat Index: 46°   Visibility: 10mi
Dew Point: 40°   Wind: 2mph
Humidity: 79%   Direction: 180°S
Pressure: 30.1"   Gusts: NA
Location:  32.37°N, 112.86°W
Report Text: KGXF 211056Z AUTO 18002KT 10SM CLR 08/04 A3010 RMK AO2 SLP189 T00780044
Loading
Personal Weather Stations






























Interactive Weather Map New forecast layout! Learn more

10-Day Weather Forecast

Advertisements
Track Severe Weather on mobile